ウランバートル の空港の天気 - METARとTAF

チンギスハーン国際空港 ( ZMUB / ULN ) - モンゴル ウランバートル
飛行場実況気象(Metar)
観測時間06/24 17:30 ULAT (06/24 09:30 UTC)
風向・風速不定 2m/s
視程10km以上
天気現象
全天の4割程度の雲 雲底高度 910m
全天の4割程度の雲 雲底高度 1010m
気温29℃
湿度23%
気圧1006hPa
METARZMUB 240930Z VRB02MPS 9999 SCT030CB SCT033 29/06 Q1006 NOSIG RMK QFE648.1 22 MOP
過去の天気等 Google飛行場航空写真 Wunderground天気予報

過去48時間のMETAR

飛行場予報(TAF)
発表時間: 6/24 12:40 ULAT (6/24 04:40 UTC)
予報対象時間: 24日14時 ULAT ~ 25日20時 ULAT
風向・風速不定 2m/s
視程10km以上
少しの積乱雲 雲底高度 910m
全天の4割程度の雲 雲底高度 1010m
24日14時 ULAT ~ 24日18時 ULAT に 確率 40% で一時的に
風向・風速不定 8m/s
天気現象雷 しゅう雨
全天の4割程度の積乱雲 雲底高度 910m
全天の4割程度の雲 雲底高度 1010m
24日22時 ULAT ~ 25日16時 ULAT に一時的に
風向・風速不定 8m/s 瞬間風速 13m/s
天気現象雷 しゅう雨
全天の4割程度の積乱雲 雲底高度 910m
全天の4割程度の雲 雲底高度 1010m
25日11時 ULAT ~ 25日13時 ULAT に徐々に
風向・風速西 5m/s
TAF ZMUB 240440Z 2406/2512 VRB02MPS 9999 FEW030CB SCT033 TX31/2407Z TN15/2321Z
PROB40 TEMPO 2406/2410 VRB08MPS TS SHRA SCT030CB SCT033
TEMPO 2414/2508 VRB08G13MPS TS SHRA SCT030CB SCT033
BECMG 2503/2505 28005MPS